sensor_id;sensor_type;location;lat;lon;timestamp;P1;durP1;ratioP1;P2;durP2;ratioP2
920;SDS011;447;51.332;6.778;2024-02-21T00:01:56;18.13;;;10.63;;
920;SDS011;447;51.332;6.778;2024-02-21T00:04:22;18.40;;;9.97;;
920;SDS011;447;51.332;6.778;2024-02-21T00:06:48;20.07;;;9.70;;
920;SDS011;447;51.332;6.778;2024-02-21T00:09:14;23.47;;;10.50;;
920;SDS011;447;51.332;6.778;2024-02-21T00:11:41;26.20;;;10.37;;
920;SDS011;447;51.332;6.778;2024-02-21T00:14:11;18.90;;;9.50;;
920;SDS011;447;51.332;6.778;2024-02-21T00:16:37;17.73;;;9.63;;
920;SDS011;447;51.332;6.778;2024-02-21T00:19:05;16.00;;;9.53;;
920;SDS011;447;51.332;6.778;2024-02-21T00:21:34;19.40;;;11.20;;
920;SDS011;447;51.332;6.778;2024-02-21T00:24:00;17.07;;;9.33;;
920;SDS011;447;51.332;6.778;2024-02-21T00:26:26;17.83;;;10.17;;
920;SDS011;447;51.332;6.778;2024-02-21T00:28:52;18.93;;;10.40;;
920;SDS011;447;51.332;6.778;2024-02-21T00:31:18;17.20;;;10.67;;
920;SDS011;447;51.332;6.778;2024-02-21T00:33:47;22.10;;;9.90;;
920;SDS011;447;51.332;6.778;2024-02-21T00:36:16;19.33;;;10.73;;
920;SDS011;447;51.332;6.778;2024-02-21T00:38:42;22.80;;;10.00;;
920;SDS011;447;51.332;6.778;2024-02-21T00:41:08;15.80;;;10.40;;
920;SDS011;447;51.332;6.778;2024-02-21T00:43:36;18.73;;;9.43;;
920;SDS011;447;51.332;6.778;2024-02-21T00:46:05;19.80;;;9.30;;
920;SDS011;447;51.332;6.778;2024-02-21T00:48:31;16.00;;;9.50;;
920;SDS011;447;51.332;6.778;2024-02-21T00:50:57;20.23;;;10.47;;
920;SDS011;447;51.332;6.778;2024-02-21T00:53:28;17.43;;;9.60;;
920;SDS011;447;51.332;6.778;2024-02-21T00:55:56;18.63;;;8.57;;
920;SDS011;447;51.332;6.778;2024-02-21T00:58:27;18.80;;;10.27;;
920;SDS011;447;51.332;6.778;2024-02-21T01:00:55;19.53;;;9.43;;
920;SDS011;447;51.332;6.778;2024-02-21T01:03:21;14.03;;;8.97;;
920;SDS011;447;51.332;6.778;2024-02-21T01:05:52;17.27;;;8.30;;
920;SDS011;447;51.332;6.778;2024-02-21T01:08:20;18.23;;;9.10;;
920;SDS011;447;51.332;6.778;2024-02-21T01:10:47;13.40;;;8.83;;
920;SDS011;447;51.332;6.778;2024-02-21T01:13:17;15.80;;;9.13;;
920;SDS011;447;51.332;6.778;2024-02-21T01:15:43;13.23;;;8.80;;
920;SDS011;447;51.332;6.778;2024-02-21T01:18:11;17.20;;;9.43;;
920;SDS011;447;51.332;6.778;2024-02-21T01:20:37;20.97;;;8.77;;
920;SDS011;447;51.332;6.778;2024-02-21T01:23:08;22.47;;;8.87;;
920;SDS011;447;51.332;6.778;2024-02-21T01:25:34;22.27;;;10.73;;
920;SDS011;447;51.332;6.778;2024-02-21T01:28:00;17.03;;;9.53;;
920;SDS011;447;51.332;6.778;2024-02-21T01:30:28;17.60;;;8.87;;
920;SDS011;447;51.332;6.778;2024-02-21T01:32:59;15.83;;;8.50;;
920;SDS011;447;51.332;6.778;2024-02-21T01:35:28;13.97;;;9.53;;
920;SDS011;447;51.332;6.778;2024-02-21T01:37:56;18.57;;;9.07;;
920;SDS011;447;51.332;6.778;2024-02-21T01:40:22;11.57;;;7.93;;
920;SDS011;447;51.332;6.778;2024-02-21T01:42:49;13.30;;;7.70;;
920;SDS011;447;51.332;6.778;2024-02-21T01:45:19;17.60;;;8.70;;
920;SDS011;447;51.332;6.778;2024-02-21T01:47:47;15.67;;;8.63;;
920;SDS011;447;51.332;6.778;2024-02-21T01:50:17;21.17;;;8.10;;
920;SDS011;447;51.332;6.778;2024-02-21T01:52:48;14.53;;;8.50;;
920;SDS011;447;51.332;6.778;2024-02-21T01:55:15;15.10;;;8.50;;
920;SDS011;447;51.332;6.778;2024-02-21T01:57:42;14.77;;;8.00;;
920;SDS011;447;51.332;6.778;2024-02-21T02:00:16;12.40;;;7.70;;
920;SDS011;447;51.332;6.778;2024-02-21T02:02:43;15.30;;;9.50;;
920;SDS011;447;51.332;6.778;2024-02-21T02:05:11;16.70;;;8.87;;
920;SDS011;447;51.332;6.778;2024-02-21T02:07:37;13.40;;;8.47;;
920;SDS011;447;51.332;6.778;2024-02-21T02:10:03;16.27;;;8.80;;
920;SDS011;447;51.332;6.778;2024-02-21T02:12:32;19.70;;;8.53;;
920;SDS011;447;51.332;6.778;2024-02-21T02:15:02;14.13;;;8.23;;
920;SDS011;447;51.332;6.778;2024-02-21T02:17:31;16.20;;;7.73;;
920;SDS011;447;51.332;6.778;2024-02-21T02:20:00;16.30;;;8.07;;
920;SDS011;447;51.332;6.778;2024-02-21T02:22:29;15.83;;;9.13;;
920;SDS011;447;51.332;6.778;2024-02-21T02:24:57;15.23;;;8.57;;
920;SDS011;447;51.332;6.778;2024-02-21T02:27:26;17.73;;;8.73;;
920;SDS011;447;51.332;6.778;2024-02-21T02:29:53;21.67;;;8.33;;
920;SDS011;447;51.332;6.778;2024-02-21T02:32:24;19.83;;;9.90;;
920;SDS011;447;51.332;6.778;2024-02-21T02:34:52;13.53;;;7.93;;
920;SDS011;447;51.332;6.778;2024-02-21T02:37:18;9.90;;;7.77;;
920;SDS011;447;51.332;6.778;2024-02-21T02:39:48;19.23;;;9.57;;
920;SDS011;447;51.332;6.778;2024-02-21T02:42:14;15.50;;;8.00;;
920;SDS011;447;51.332;6.778;2024-02-21T02:44:40;11.77;;;7.57;;
920;SDS011;447;51.332;6.778;2024-02-21T02:47:09;12.73;;;7.73;;
920;SDS011;447;51.332;6.778;2024-02-21T02:49:37;12.83;;;8.73;;
920;SDS011;447;51.332;6.778;2024-02-21T02:52:03;16.23;;;8.30;;
920;SDS011;447;51.332;6.778;2024-02-21T02:54:29;15.47;;;9.10;;
920;SDS011;447;51.332;6.778;2024-02-21T02:57:01;16.33;;;7.90;;
920;SDS011;447;51.332;6.778;2024-02-21T02:59:28;15.63;;;8.43;;
920;SDS011;447;51.332;6.778;2024-02-21T03:01:57;12.97;;;7.87;;
920;SDS011;447;51.332;6.778;2024-02-21T03:07:23;12.60;;;8.80;;
920;SDS011;447;51.332;6.778;2024-02-21T03:09:50;11.73;;;7.73;;
920;SDS011;447;51.332;6.778;2024-02-21T03:12:20;13.40;;;7.50;;
920;SDS011;447;51.332;6.778;2024-02-21T03:14:53;15.83;;;8.53;;
920;SDS011;447;51.332;6.778;2024-02-21T03:17:19;15.20;;;7.97;;
920;SDS011;447;51.332;6.778;2024-02-21T03:19:45;13.23;;;7.67;;
920;SDS011;447;51.332;6.778;2024-02-21T03:22:11;12.93;;;7.70;;
920;SDS011;447;51.332;6.778;2024-02-21T03:24:40;15.70;;;8.10;;
920;SDS011;447;51.332;6.778;2024-02-21T03:27:06;12.60;;;7.83;;
920;SDS011;447;51.332;6.778;2024-02-21T03:29:32;14.23;;;7.90;;
920;SDS011;447;51.332;6.778;2024-02-21T03:32:00;13.40;;;7.83;;
920;SDS011;447;51.332;6.778;2024-02-21T03:37:16;13.17;;;8.30;;
920;SDS011;447;51.332;6.778;2024-02-21T03:39:42;14.63;;;7.60;;
920;SDS011;447;51.332;6.778;2024-02-21T03:42:09;19.37;;;7.90;;
920;SDS011;447;51.332;6.778;2024-02-21T03:44:36;16.23;;;7.00;;
920;SDS011;447;51.332;6.778;2024-02-21T03:47:02;11.70;;;8.10;;
920;SDS011;447;51.332;6.778;2024-02-21T03:49:28;10.93;;;7.33;;
920;SDS011;447;51.332;6.778;2024-02-21T03:51:54;10.77;;;7.50;;
920;SDS011;447;51.332;6.778;2024-02-21T03:54:22;14.10;;;8.10;;
920;SDS011;447;51.332;6.778;2024-02-21T03:56:48;16.60;;;8.13;;
920;SDS011;447;51.332;6.778;2024-02-21T03:59:15;16.80;;;7.73;;
920;SDS011;447;51.332;6.778;2024-02-21T04:01:41;11.43;;;8.00;;
920;SDS011;447;51.332;6.778;2024-02-21T04:04:07;19.67;;;8.80;;
920;SDS011;447;51.332;6.778;2024-02-21T04:06:33;14.40;;;8.43;;
920;SDS011;447;51.332;6.778;2024-02-21T04:09:01;12.40;;;8.43;;
920;SDS011;447;51.332;6.778;2024-02-21T04:11:30;13.40;;;8.03;;
920;SDS011;447;51.332;6.778;2024-02-21T04:13:57;14.80;;;7.10;;
920;SDS011;447;51.332;6.778;2024-02-21T04:16:23;14.57;;;8.37;;
920;SDS011;447;51.332;6.778;2024-02-21T04:18:49;16.30;;;8.33;;
920;SDS011;447;51.332;6.778;2024-02-21T04:21:20;13.70;;;7.83;;
920;SDS011;447;51.332;6.778;2024-02-21T04:23:46;18.07;;;8.60;;
920;SDS011;447;51.332;6.778;2024-02-21T04:26:12;11.93;;;7.23;;
920;SDS011;447;51.332;6.778;2024-02-21T04:28:41;14.23;;;7.20;;
920;SDS011;447;51.332;6.778;2024-02-21T04:31:07;12.27;;;7.57;;
920;SDS011;447;51.332;6.778;2024-02-21T04:33:33;16.80;;;8.70;;
920;SDS011;447;51.332;6.778;2024-02-21T04:35:59;10.90;;;7.70;;
920;SDS011;447;51.332;6.778;2024-02-21T04:38:26;12.70;;;7.50;;
920;SDS011;447;51.332;6.778;2024-02-21T04:40:55;12.50;;;8.23;;
920;SDS011;447;51.332;6.778;2024-02-21T04:43:26;12.83;;;7.00;;
920;SDS011;447;51.332;6.778;2024-02-21T04:45:52;10.20;;;7.20;;
920;SDS011;447;51.332;6.778;2024-02-21T04:48:18;10.20;;;6.80;;
920;SDS011;447;51.332;6.778;2024-02-21T04:50:45;12.73;;;7.17;;
920;SDS011;447;51.332;6.778;2024-02-21T04:53:14;12.17;;;7.10;;
920;SDS011;447;51.332;6.778;2024-02-21T04:55:40;12.77;;;6.77;;
920;SDS011;447;51.332;6.778;2024-02-21T04:58:06;11.57;;;7.10;;
920;SDS011;447;51.332;6.778;2024-02-21T05:00:32;11.50;;;6.40;;
920;SDS011;447;51.332;6.778;2024-02-21T05:03:00;13.37;;;7.47;;
920;SDS011;447;51.332;6.778;2024-02-21T05:05:27;11.20;;;6.57;;
920;SDS011;447;51.332;6.778;2024-02-21T05:07:53;16.63;;;6.93;;
920;SDS011;447;51.332;6.778;2024-02-21T05:10:21;10.00;;;6.07;;
920;SDS011;447;51.332;6.778;2024-02-21T05:12:47;8.83;;;6.13;;
920;SDS011;447;51.332;6.778;2024-02-21T05:15:13;7.83;;;6.10;;
920;SDS011;447;51.332;6.778;2024-02-21T05:17:39;12.33;;;6.50;;
920;SDS011;447;51.332;6.778;2024-02-21T05:20:08;12.63;;;6.50;;
920;SDS011;447;51.332;6.778;2024-02-21T05:22:35;7.67;;;5.83;;
920;SDS011;447;51.332;6.778;2024-02-21T05:25:01;8.00;;;6.37;;
920;SDS011;447;51.332;6.778;2024-02-21T05:27:27;15.07;;;7.50;;
920;SDS011;447;51.332;6.778;2024-02-21T05:29:53;8.90;;;6.70;;
920;SDS011;447;51.332;6.778;2024-02-21T05:32:19;8.83;;;6.40;;
920;SDS011;447;51.332;6.778;2024-02-21T05:34:48;12.50;;;6.70;;
920;SDS011;447;51.332;6.778;2024-02-21T05:37:17;13.60;;;6.60;;
920;SDS011;447;51.332;6.778;2024-02-21T05:39:46;11.57;;;6.73;;
920;SDS011;447;51.332;6.778;2024-02-21T05:42:14;11.17;;;6.10;;
920;SDS011;447;51.332;6.778;2024-02-21T05:44:42;11.10;;;6.37;;
920;SDS011;447;51.332;6.778;2024-02-21T05:47:11;12.20;;;6.90;;
920;SDS011;447;51.332;6.778;2024-02-21T05:49:40;11.40;;;6.00;;
920;SDS011;447;51.332;6.778;2024-02-21T05:52:06;12.80;;;6.47;;
920;SDS011;447;51.332;6.778;2024-02-21T05:54:37;9.53;;;6.53;;
920;SDS011;447;51.332;6.778;2024-02-21T05:57:04;9.80;;;6.53;;
920;SDS011;447;51.332;6.778;2024-02-21T05:59:31;11.67;;;6.57;;
920;SDS011;447;51.332;6.778;2024-02-21T06:01:59;11.20;;;6.50;;
920;SDS011;447;51.332;6.778;2024-02-21T06:04:29;8.97;;;6.37;;
920;SDS011;447;51.332;6.778;2024-02-21T06:06:55;12.17;;;5.63;;
920;SDS011;447;51.332;6.778;2024-02-21T06:12:14;12.00;;;6.30;;
920;SDS011;447;51.332;6.778;2024-02-21T06:14:40;11.33;;;6.53;;
920;SDS011;447;51.332;6.778;2024-02-21T06:17:11;9.30;;;5.70;;
920;SDS011;447;51.332;6.778;2024-02-21T06:19:39;9.33;;;6.13;;
920;SDS011;447;51.332;6.778;2024-02-21T06:22:07;12.07;;;5.40;;
920;SDS011;447;51.332;6.778;2024-02-21T06:24:33;7.23;;;5.77;;
920;SDS011;447;51.332;6.778;2024-02-21T06:27:02;13.73;;;6.07;;
920;SDS011;447;51.332;6.778;2024-02-21T06:29:32;11.20;;;5.50;;
920;SDS011;447;51.332;6.778;2024-02-21T06:31:58;10.70;;;6.63;;
920;SDS011;447;51.332;6.778;2024-02-21T06:34:27;10.20;;;6.37;;
920;SDS011;447;51.332;6.778;2024-02-21T06:36:53;13.30;;;6.93;;
920;SDS011;447;51.332;6.778;2024-02-21T06:39:22;9.03;;;5.93;;
920;SDS011;447;51.332;6.778;2024-02-21T06:41:49;10.70;;;5.90;;
920;SDS011;447;51.332;6.778;2024-02-21T06:44:19;11.00;;;5.90;;
920;SDS011;447;51.332;6.778;2024-02-21T06:46:51;10.00;;;5.80;;
920;SDS011;447;51.332;6.778;2024-02-21T06:49:17;11.07;;;6.27;;
920;SDS011;447;51.332;6.778;2024-02-21T06:51:45;10.33;;;5.80;;
920;SDS011;447;51.332;6.778;2024-02-21T06:54:11;9.23;;;5.40;;
920;SDS011;447;51.332;6.778;2024-02-21T06:56:40;8.43;;;6.03;;
920;SDS011;447;51.332;6.778;2024-02-21T06:59:06;11.33;;;5.37;;
920;SDS011;447;51.332;6.778;2024-02-21T07:01:37;6.63;;;5.37;;
920;SDS011;447;51.332;6.778;2024-02-21T07:04:05;7.33;;;5.33;;
920;SDS011;447;51.332;6.778;2024-02-21T07:06:31;12.00;;;7.00;;
920;SDS011;447;51.332;6.778;2024-02-21T07:08:57;15.63;;;7.20;;
920;SDS011;447;51.332;6.778;2024-02-21T07:11:23;12.93;;;6.10;;
920;SDS011;447;51.332;6.778;2024-02-21T07:13:51;7.73;;;5.67;;
920;SDS011;447;51.332;6.778;2024-02-21T07:16:19;11.03;;;7.20;;
920;SDS011;447;51.332;6.778;2024-02-21T07:18:46;8.43;;;6.00;;
920;SDS011;447;51.332;6.778;2024-02-21T07:21:14;9.20;;;5.40;;
920;SDS011;447;51.332;6.778;2024-02-21T07:23:41;9.37;;;5.60;;
920;SDS011;447;51.332;6.778;2024-02-21T07:26:11;9.10;;;5.77;;
920;SDS011;447;51.332;6.778;2024-02-21T07:28:37;8.60;;;5.63;;
920;SDS011;447;51.332;6.778;2024-02-21T07:31:03;11.80;;;5.77;;
920;SDS011;447;51.332;6.778;2024-02-21T07:33:32;13.17;;;6.10;;
920;SDS011;447;51.332;6.778;2024-02-21T07:35:58;10.37;;;6.70;;
920;SDS011;447;51.332;6.778;2024-02-21T07:38:27;10.67;;;5.63;;
920;SDS011;447;51.332;6.778;2024-02-21T07:40:55;8.80;;;5.93;;
920;SDS011;447;51.332;6.778;2024-02-21T07:43:21;11.97;;;6.27;;
920;SDS011;447;51.332;6.778;2024-02-21T07:45:47;9.37;;;5.30;;
920;SDS011;447;51.332;6.778;2024-02-21T07:48:15;10.77;;;5.70;;
920;SDS011;447;51.332;6.778;2024-02-21T07:50:43;8.40;;;5.47;;
920;SDS011;447;51.332;6.778;2024-02-21T07:53:09;9.73;;;4.80;;
920;SDS011;447;51.332;6.778;2024-02-21T07:55:37;8.40;;;5.73;;
920;SDS011;447;51.332;6.778;2024-02-21T07:58:03;9.33;;;5.00;;
920;SDS011;447;51.332;6.778;2024-02-21T08:00:29;9.27;;;5.40;;
920;SDS011;447;51.332;6.778;2024-02-21T08:02:56;8.23;;;5.13;;
920;SDS011;447;51.332;6.778;2024-02-21T08:05:22;9.70;;;4.87;;
920;SDS011;447;51.332;6.778;2024-02-21T08:07:48;8.80;;;5.60;;
920;SDS011;447;51.332;6.778;2024-02-21T08:10:17;9.60;;;5.13;;
920;SDS011;447;51.332;6.778;2024-02-21T08:12:43;8.07;;;5.33;;
920;SDS011;447;51.332;6.778;2024-02-21T08:15:11;10.37;;;6.53;;
920;SDS011;447;51.332;6.778;2024-02-21T08:17:38;7.67;;;5.10;;
920;SDS011;447;51.332;6.778;2024-02-21T08:20:04;9.40;;;6.50;;
920;SDS011;447;51.332;6.778;2024-02-21T08:22:30;7.87;;;5.63;;
920;SDS011;447;51.332;6.778;2024-02-21T08:24:57;11.67;;;5.33;;
920;SDS011;447;51.332;6.778;2024-02-21T08:27:23;12.60;;;6.10;;
920;SDS011;447;51.332;6.778;2024-02-21T08:29:49;9.47;;;5.67;;
920;SDS011;447;51.332;6.778;2024-02-21T08:32:15;9.30;;;4.80;;
920;SDS011;447;51.332;6.778;2024-02-21T08:34:41;10.70;;;5.57;;
920;SDS011;447;51.332;6.778;2024-02-21T08:37:09;7.63;;;6.37;;
920;SDS011;447;51.332;6.778;2024-02-21T08:39:36;10.73;;;4.80;;
920;SDS011;447;51.332;6.778;2024-02-21T08:42:02;11.77;;;5.93;;
920;SDS011;447;51.332;6.778;2024-02-21T08:44:28;7.77;;;4.80;;
920;SDS011;447;51.332;6.778;2024-02-21T08:46:54;9.30;;;4.90;;
920;SDS011;447;51.332;6.778;2024-02-21T08:49:23;6.97;;;4.53;;
920;SDS011;447;51.332;6.778;2024-02-21T08:51:49;12.07;;;5.93;;
920;SDS011;447;51.332;6.778;2024-02-21T08:54:15;11.97;;;5.27;;
920;SDS011;447;51.332;6.778;2024-02-21T08:56:42;10.53;;;5.17;;
920;SDS011;447;51.332;6.778;2024-02-21T08:59:08;11.97;;;6.10;;
920;SDS011;447;51.332;6.778;2024-02-21T09:01:38;9.50;;;5.23;;
920;SDS011;447;51.332;6.778;2024-02-21T09:04:04;10.87;;;5.07;;
920;SDS011;447;51.332;6.778;2024-02-21T09:06:32;7.70;;;4.60;;
920;SDS011;447;51.332;6.778;2024-02-21T09:08:59;8.23;;;5.40;;
920;SDS011;447;51.332;6.778;2024-02-21T09:11:25;6.60;;;4.50;;
920;SDS011;447;51.332;6.778;2024-02-21T09:13:55;8.80;;;4.23;;
920;SDS011;447;51.332;6.778;2024-02-21T09:16:21;11.77;;;5.13;;
920;SDS011;447;51.332;6.778;2024-02-21T09:18:51;7.60;;;5.07;;
920;SDS011;447;51.332;6.778;2024-02-21T09:21:18;8.47;;;5.20;;
920;SDS011;447;51.332;6.778;2024-02-21T09:23:44;9.90;;;5.17;;
920;SDS011;447;51.332;6.778;2024-02-21T09:26:13;6.50;;;4.50;;
920;SDS011;447;51.332;6.778;2024-02-21T09:28:43;12.07;;;5.57;;
920;SDS011;447;51.332;6.778;2024-02-21T09:31:10;9.97;;;4.80;;
920;SDS011;447;51.332;6.778;2024-02-21T09:33:37;10.50;;;4.67;;
920;SDS011;447;51.332;6.778;2024-02-21T09:36:05;10.13;;;4.63;;
920;SDS011;447;51.332;6.778;2024-02-21T09:38:34;9.83;;;4.80;;
920;SDS011;447;51.332;6.778;2024-02-21T09:41:04;5.67;;;4.60;;
920;SDS011;447;51.332;6.778;2024-02-21T09:43:44;8.27;;;5.17;;
920;SDS011;447;51.332;6.778;2024-02-21T09:46:17;6.20;;;4.13;;
920;SDS011;447;51.332;6.778;2024-02-21T09:48:54;4.10;;;3.70;;
920;SDS011;447;51.332;6.778;2024-02-21T09:51:27;5.90;;;3.90;;
920;SDS011;447;51.332;6.778;2024-02-21T09:53:57;10.83;;;4.93;;
920;SDS011;447;51.332;6.778;2024-02-21T09:56:25;8.50;;;5.00;;
920;SDS011;447;51.332;6.778;2024-02-21T09:58:51;8.20;;;4.63;;
920;SDS011;447;51.332;6.778;2024-02-21T10:01:17;8.70;;;4.83;;
920;SDS011;447;51.332;6.778;2024-02-21T10:03:43;6.10;;;4.87;;
920;SDS011;447;51.332;6.778;2024-02-21T10:06:12;7.20;;;4.80;;
920;SDS011;447;51.332;6.778;2024-02-21T10:08:38;8.13;;;4.07;;
920;SDS011;447;51.332;6.778;2024-02-21T10:11:05;8.77;;;4.70;;
920;SDS011;447;51.332;6.778;2024-02-21T10:13:31;5.83;;;3.83;;
920;SDS011;447;51.332;6.778;2024-02-21T10:16:07;4.63;;;3.90;;
920;SDS011;447;51.332;6.778;2024-02-21T10:18:34;6.60;;;4.63;;
920;SDS011;447;51.332;6.778;2024-02-21T10:21:03;7.00;;;4.97;;
920;SDS011;447;51.332;6.778;2024-02-21T10:23:45;8.10;;;4.30;;
920;SDS011;447;51.332;6.778;2024-02-21T10:26:18;7.17;;;4.30;;
920;SDS011;447;51.332;6.778;2024-02-21T10:28:45;7.33;;;4.10;;
920;SDS011;447;51.332;6.778;2024-02-21T10:31:22;7.07;;;4.07;;
920;SDS011;447;51.332;6.778;2024-02-21T10:33:59;7.33;;;3.97;;
920;SDS011;447;51.332;6.778;2024-02-21T10:36:30;9.77;;;4.73;;
920;SDS011;447;51.332;6.778;2024-02-21T10:38:57;5.67;;;3.97;;
920;SDS011;447;51.332;6.778;2024-02-21T10:41:23;5.57;;;4.17;;
920;SDS011;447;51.332;6.778;2024-02-21T10:43:53;5.87;;;3.97;;
920;SDS011;447;51.332;6.778;2024-02-21T10:46:21;8.87;;;4.30;;
920;SDS011;447;51.332;6.778;2024-02-21T10:49:04;7.13;;;4.17;;
920;SDS011;447;51.332;6.778;2024-02-21T10:51:36;7.23;;;4.60;;
920;SDS011;447;51.332;6.778;2024-02-21T10:56:38;7.60;;;4.57;;
920;SDS011;447;51.332;6.778;2024-02-21T10:59:06;5.50;;;3.80;;
920;SDS011;447;51.332;6.778;2024-02-21T11:01:33;7.17;;;4.23;;
920;SDS011;447;51.332;6.778;2024-02-21T11:04:03;7.37;;;4.33;;
920;SDS011;447;51.332;6.778;2024-02-21T11:06:31;7.73;;;5.00;;
920;SDS011;447;51.332;6.778;2024-02-21T11:09:09;7.50;;;4.20;;
920;SDS011;447;51.332;6.778;2024-02-21T11:11:37;5.50;;;3.93;;
920;SDS011;447;51.332;6.778;2024-02-21T11:14:17;7.53;;;3.70;;
920;SDS011;447;51.332;6.778;2024-02-21T11:16:45;7.07;;;4.30;;
920;SDS011;447;51.332;6.778;2024-02-21T11:19:21;7.10;;;3.80;;
920;SDS011;447;51.332;6.778;2024-02-21T11:21:50;5.20;;;3.50;;
920;SDS011;447;51.332;6.778;2024-02-21T11:24:27;7.33;;;3.93;;
920;SDS011;447;51.332;6.778;2024-02-21T11:26:57;5.33;;;4.37;;
920;SDS011;447;51.332;6.778;2024-02-21T11:29:54;4.20;;;3.60;;
920;SDS011;447;51.332;6.778;2024-02-21T11:32:25;5.83;;;4.20;;
920;SDS011;447;51.332;6.778;2024-02-21T11:35:03;6.53;;;4.27;;
920;SDS011;447;51.332;6.778;2024-02-21T11:37:32;4.27;;;3.87;;
920;SDS011;447;51.332;6.778;2024-02-21T11:40:02;5.33;;;4.20;;
920;SDS011;447;51.332;6.778;2024-02-21T11:42:31;5.70;;;3.57;;
920;SDS011;447;51.332;6.778;2024-02-21T11:45:00;10.37;;;3.87;;
920;SDS011;447;51.332;6.778;2024-02-21T11:47:27;6.63;;;4.30;;
920;SDS011;447;51.332;6.778;2024-02-21T11:49:57;8.73;;;4.17;;
920;SDS011;447;51.332;6.778;2024-02-21T11:52:25;4.57;;;4.17;;
920;SDS011;447;51.332;6.778;2024-02-21T11:54:53;6.50;;;3.77;;
920;SDS011;447;51.332;6.778;2024-02-21T11:57:21;6.83;;;4.30;;
920;SDS011;447;51.332;6.778;2024-02-21T11:59:52;8.30;;;3.67;;
920;SDS011;447;51.332;6.778;2024-02-21T12:02:20;6.40;;;4.03;;
920;SDS011;447;51.332;6.778;2024-02-21T12:04:46;6.87;;;4.20;;
920;SDS011;447;51.332;6.778;2024-02-21T12:07:15;5.60;;;3.90;;
920;SDS011;447;51.332;6.778;2024-02-21T12:09:43;8.43;;;4.20;;
920;SDS011;447;51.332;6.778;2024-02-21T12:12:11;5.53;;;4.10;;
920;SDS011;447;51.332;6.778;2024-02-21T12:14:38;6.50;;;4.47;;
920;SDS011;447;51.332;6.778;2024-02-21T12:17:04;6.83;;;4.27;;
920;SDS011;447;51.332;6.778;2024-02-21T12:19:33;11.00;;;4.77;;
920;SDS011;447;51.332;6.778;2024-02-21T12:22:01;5.97;;;3.63;;
920;SDS011;447;51.332;6.778;2024-02-21T12:24:31;8.60;;;4.10;;
920;SDS011;447;51.332;6.778;2024-02-21T12:26:57;6.63;;;4.80;;
920;SDS011;447;51.332;6.778;2024-02-21T12:29:31;6.27;;;3.83;;
920;SDS011;447;51.332;6.778;2024-02-21T12:31:57;5.87;;;4.17;;
920;SDS011;447;51.332;6.778;2024-02-21T12:34:26;7.77;;;4.13;;
920;SDS011;447;51.332;6.778;2024-02-21T12:36:52;13.33;;;4.27;;
920;SDS011;447;51.332;6.778;2024-02-21T12:39:18;5.30;;;4.07;;
920;SDS011;447;51.332;6.778;2024-02-21T12:41:44;6.20;;;4.40;;
920;SDS011;447;51.332;6.778;2024-02-21T12:44:15;12.27;;;4.73;;
920;SDS011;447;51.332;6.778;2024-02-21T12:46:50;10.40;;;4.70;;
920;SDS011;447;51.332;6.778;2024-02-21T12:49:19;5.67;;;3.70;;
920;SDS011;447;51.332;6.778;2024-02-21T12:51:49;6.67;;;4.37;;
920;SDS011;447;51.332;6.778;2024-02-21T12:54:18;7.70;;;3.33;;
920;SDS011;447;51.332;6.778;2024-02-21T12:56:47;6.20;;;3.23;;
920;SDS011;447;51.332;6.778;2024-02-21T12:59:13;5.40;;;3.63;;
920;SDS011;447;51.332;6.778;2024-02-21T13:01:39;5.23;;;3.73;;
920;SDS011;447;51.332;6.778;2024-02-21T13:04:05;7.00;;;3.73;;
920;SDS011;447;51.332;6.778;2024-02-21T13:06:34;7.97;;;3.63;;
920;SDS011;447;51.332;6.778;2024-02-21T13:09:00;6.43;;;4.13;;
920;SDS011;447;51.332;6.778;2024-02-21T13:11:29;7.57;;;4.47;;
920;SDS011;447;51.332;6.778;2024-02-21T13:13:59;5.40;;;3.67;;
920;SDS011;447;51.332;6.778;2024-02-21T13:16:25;5.20;;;4.07;;
920;SDS011;447;51.332;6.778;2024-02-21T13:18:51;6.17;;;3.10;;
920;SDS011;447;51.332;6.778;2024-02-21T13:21:17;5.60;;;3.80;;
920;SDS011;447;51.332;6.778;2024-02-21T13:23:46;7.23;;;3.40;;
920;SDS011;447;51.332;6.778;2024-02-21T13:26:15;6.97;;;3.70;;
920;SDS011;447;51.332;6.778;2024-02-21T13:28:41;3.93;;;3.07;;
920;SDS011;447;51.332;6.778;2024-02-21T13:31:07;4.20;;;3.57;;
920;SDS011;447;51.332;6.778;2024-02-21T13:33:36;11.33;;;4.40;;
920;SDS011;447;51.332;6.778;2024-02-21T13:36:02;5.70;;;3.40;;
920;SDS011;447;51.332;6.778;2024-02-21T13:38:29;5.30;;;4.00;;
920;SDS011;447;51.332;6.778;2024-02-21T13:40:55;6.67;;;4.00;;
920;SDS011;447;51.332;6.778;2024-02-21T13:43:21;6.77;;;3.37;;
920;SDS011;447;51.332;6.778;2024-02-21T13:45:59;5.03;;;3.60;;
920;SDS011;447;51.332;6.778;2024-02-21T13:48:30;5.30;;;4.50;;
920;SDS011;447;51.332;6.778;2024-02-21T13:50:58;5.10;;;3.83;;
920;SDS011;447;51.332;6.778;2024-02-21T13:53:25;7.90;;;4.00;;
920;SDS011;447;51.332;6.778;2024-02-21T13:55:51;5.77;;;3.80;;
920;SDS011;447;51.332;6.778;2024-02-21T13:58:20;6.07;;;3.73;;
920;SDS011;447;51.332;6.778;2024-02-21T14:00:47;5.33;;;3.70;;
920;SDS011;447;51.332;6.778;2024-02-21T14:03:13;4.50;;;3.70;;
920;SDS011;447;51.332;6.778;2024-02-21T14:05:39;7.67;;;4.27;;
920;SDS011;447;51.332;6.778;2024-02-21T14:08:06;5.00;;;3.70;;
920;SDS011;447;51.332;6.778;2024-02-21T14:10:32;6.13;;;4.00;;
920;SDS011;447;51.332;6.778;2024-02-21T14:13:01;4.73;;;3.50;;
920;SDS011;447;51.332;6.778;2024-02-21T14:15:27;5.40;;;4.00;;
920;SDS011;447;51.332;6.778;2024-02-21T14:17:56;5.33;;;3.60;;
920;SDS011;447;51.332;6.778;2024-02-21T14:20:22;8.53;;;4.17;;
920;SDS011;447;51.332;6.778;2024-02-21T14:22:50;6.40;;;3.63;;
920;SDS011;447;51.332;6.778;2024-02-21T14:25:16;6.40;;;4.20;;
920;SDS011;447;51.332;6.778;2024-02-21T14:27:42;6.30;;;3.90;;
920;SDS011;447;51.332;6.778;2024-02-21T14:30:09;7.50;;;4.17;;
920;SDS011;447;51.332;6.778;2024-02-21T14:32:36;6.27;;;3.77;;
920;SDS011;447;51.332;6.778;2024-02-21T14:35:03;5.67;;;3.60;;
920;SDS011;447;51.332;6.778;2024-02-21T14:37:29;6.57;;;3.97;;
920;SDS011;447;51.332;6.778;2024-02-21T14:39:55;5.70;;;4.10;;
920;SDS011;447;51.332;6.778;2024-02-21T14:42:24;8.60;;;4.50;;
920;SDS011;447;51.332;6.778;2024-02-21T14:44:51;8.30;;;3.87;;
920;SDS011;447;51.332;6.778;2024-02-21T14:47:17;5.20;;;4.43;;
920;SDS011;447;51.332;6.778;2024-02-21T14:49:43;6.03;;;4.07;;
920;SDS011;447;51.332;6.778;2024-02-21T14:52:11;6.43;;;3.67;;
920;SDS011;447;51.332;6.778;2024-02-21T14:54:39;8.63;;;4.17;;
920;SDS011;447;51.332;6.778;2024-02-21T14:57:12;5.17;;;4.07;;
920;SDS011;447;51.332;6.778;2024-02-21T14:59:40;6.57;;;4.00;;
920;SDS011;447;51.332;6.778;2024-02-21T15:02:05;6.83;;;4.20;;
920;SDS011;447;51.332;6.778;2024-02-21T15:04:33;5.43;;;4.20;;
920;SDS011;447;51.332;6.778;2024-02-21T15:07:00;5.67;;;4.00;;
920;SDS011;447;51.332;6.778;2024-02-21T15:09:30;7.47;;;4.50;;
920;SDS011;447;51.332;6.778;2024-02-21T15:11:56;7.40;;;3.60;;
920;SDS011;447;51.332;6.778;2024-02-21T15:14:22;5.53;;;4.23;;
920;SDS011;447;51.332;6.778;2024-02-21T15:16:49;8.27;;;4.00;;
920;SDS011;447;51.332;6.778;2024-02-21T15:19:15;5.93;;;3.50;;
920;SDS011;447;51.332;6.778;2024-02-21T15:21:44;5.63;;;3.60;;
920;SDS011;447;51.332;6.778;2024-02-21T15:24:10;7.53;;;3.43;;
920;SDS011;447;51.332;6.778;2024-02-21T15:26:36;5.80;;;4.37;;
920;SDS011;447;51.332;6.778;2024-02-21T15:29:02;8.70;;;3.87;;
920;SDS011;447;51.332;6.778;2024-02-21T15:31:30;6.83;;;4.57;;
920;SDS011;447;51.332;6.778;2024-02-21T15:33:57;5.87;;;4.20;;
920;SDS011;447;51.332;6.778;2024-02-21T15:36:27;4.40;;;4.00;;
920;SDS011;447;51.332;6.778;2024-02-21T15:38:57;5.50;;;3.70;;
920;SDS011;447;51.332;6.778;2024-02-21T15:41:25;4.47;;;3.50;;
920;SDS011;447;51.332;6.778;2024-02-21T15:43:52;6.50;;;4.13;;
920;SDS011;447;51.332;6.778;2024-02-21T15:46:21;4.80;;;4.10;;
920;SDS011;447;51.332;6.778;2024-02-21T15:48:49;5.87;;;4.30;;
920;SDS011;447;51.332;6.778;2024-02-21T15:51:21;8.67;;;4.00;;
920;SDS011;447;51.332;6.778;2024-02-21T15:53:47;5.83;;;4.43;;